Weather at Gullfaks C Helipad

Public forecast

Using degrees Celsius for public forecast. Weather courtesy of forecast.io.

Current aviation weather report (METAR) for Gullfaks C Helipad

2024/07/15 11:50 (retrieved 17 minutes ago)

ENGC 151150Z 18014KT 9999 SCT004 BKN008 13/13 Q1005 W13/S3

Aviation forecast (TAF) for Gullfaks C Helipad

2024/07/15 12:36 (retrieved 0 seconds ago)

TAF ENGC 151100Z 1512/1612 18018KT 9999 SCT005 BKN009 BECMG 1512/1514 SCT007 BKN015 TEMPO 1514/1612 SCT005 BKN012